This is the latest recevied weather packets stored in our database for station/object DJ8HS-13. If no packets are shown the sender has not sent any weather packets the latest 1 day(s).
| Time | Temp. | Humidity | Pressure | Rain* | Wind** | Luminosity | Snow |
|---|---|---|---|---|---|---|---|
| 1778080769 | 18.33° C | 65% | 0 hPa | 0 mm | - | - | - |
| 1778075969 | 20.56° C | 52% | 0 hPa | 0 mm | - | - | - |
| 1778075669 | 20.56° C | 53% | 0 hPa | 0 mm | - | - | - |
| 1778073269 | 21.11° C | 51% | 0 hPa | 0 mm | - | - | - |
| 1778072669 | 21.11° C | 52% | 0 hPa | 0 mm | - | - | - |
| 1778060970 | 21.67° C | 53% | 0 hPa | 0 mm | - | - | - |
| 1778060070 | 20° C | 58% | 0 hPa | 0 mm | - | - | - |
| 1778059770 | 19.44° C | 58% | 0 hPa | 0 mm | - | - | - |
| 1778059170 | 18.89° C | 60% | 0 hPa | 0 mm | - | - | - |
| 1778058870 | 18.33° C | 60% | 0 hPa | 0 mm | - | - | - |
| 1778058570 | 18.33° C | 60% | 0 hPa | 0 mm | - | - | - |
| 1778058270 | 18.33° C | 59% | 0 hPa | 0 mm | - | - | - |
| 1778057970 | 18.33° C | 61% | 0 hPa | 0 mm | - | - | - |
| 1778057670 | 18.33° C | 61% | 0 hPa | 0 mm | - | - | - |
| 1778057370 | 18.33° C | 60% | 0 hPa | 0 mm | - | - | - |
| 1778057070 | 18.33° C | 60% | 0 hPa | 0 mm | - | - | - |
| 1778056770 | 18.33° C | 61% | 0 hPa | 0 mm | - | - | - |
| 1778056470 | 18.33° C | 61% | 0 hPa | 0 mm | - | - | - |
| 1778056170 | 18.33° C | 61% | 0 hPa | 0 mm | - | - | - |
| 1778055870 | 18.33° C | 61% | 0 hPa | 0 mm | - | - | - |
| 1778055570 | 18.33° C | 61% | 0 hPa | 0 mm | - | - | - |
| 1778055270 | 18.33° C | 63% | 0 hPa | 0 mm | - | - | - |
| 1778054970 | 18.33° C | 64% | 0 hPa | 0 mm | - | - | - |
| 1778054670 | 18.33° C | 65% | 0 hPa | 0 mm | - | - | - |
| 1778054370 | 18.33° C | 64% | 0 hPa | 0 mm | - | - | - |
* Rain latest hour (hover to see other rain measurements)
** Current wind speed in m/s (hover to see current wind gust speed)